Time;durP1;ratioP1;P1;durP2;ratioP2;P2;SDS_P1;SDS_P2;PMS_P1;PMS_P2;Temp;Humidity;BMP_temperature;BMP_pressure;BME280_temperature;BME280_humidity;BME280_pressure;Samples;Min_cycle;Max_cycle;Signal;HPM_P1;HPM_P2
2022/12/30 00:02:00;;;;;;;;;;;;;;;;;;6265281;22;19915;-76
2022/12/30 00:04:26;;;;;;;;;;;;;;;;;;6264795;22;19921;-75
2022/12/30 00:06:52;;;;;;;;;;;;;;;;;;6264779;22;19915;-75
2022/12/30 00:09:18;;;;;;;;;;;;;;;;;;6292049;22;19922;-76
2022/12/30 00:11:44;;;;;;;;;;;;;;;;;;6264801;22;19962;-75
2022/12/30 00:33:08;;;;;;;;;;;;;;;;;;6263789;22;19926;-76
2022/12/30 00:35:34;;;;;;;;;;;;;;;;;;6265170;22;19915;-75
2022/12/30 00:38:00;;;;;;;;;;;;;;;;;;6239077;22;20283;-75
2022/12/30 00:40:26;;;;;;;;;;;;;;;;;;6292456;22;19942;-76
2022/12/30 00:43:10;;;;;;;;;;;;;;;;;;6264127;22;20283;-76
2022/12/30 00:45:36;;;;;;;;;;;;;;;;;;6264678;22;19993;-75
2022/12/30 00:56:16;;;;;;;;;;;;;;;;;;6292710;22;20768;-75
2022/12/30 00:58:42;;;;;;;;;;;;;;;;;;6263950;22;20220;-76
2022/12/30 01:01:08;;;;;;;;;;;;;;;;;;6265414;22;20338;-76
2022/12/30 01:03:34;;;;;;;;;;;;;;;;;;6264255;22;20329;-76
2022/12/30 01:06:00;;;;;;;;;;;;;;;;;;6264537;22;19921;-75
2022/12/30 01:08:26;;;;;;;;;;;;;;;;;;6261879;22;19914;-77
2022/12/30 01:10:52;;;;;;;;;;;;;;;;;;6264963;22;19914;-76
2022/12/30 01:13:18;;;;;;;;;;;;;;;;;;6264448;22;19929;-76
2022/12/30 01:15:44;;;;;;;;;;;;;;;;;;6238620;22;19918;-77
2022/12/30 01:18:09;;;;;;;;;;;;;;;;;;6265992;22;20330;-76
2022/12/30 01:20:36;;;;;;;;;;;;;;;;;;6265786;22;20317;-75
2022/12/30 01:23:02;;;;;;;;;;;;;;;;;;6264597;22;19922;-76
2022/12/30 01:25:28;;;;;;;;;;;;;;;;;;6239672;22;19919;-76
2022/12/30 01:27:54;;;;;;;;;;;;;;;;;;6265459;22;19921;-76
2022/12/30 01:30:20;;;;;;;;;;;;;;;;;;6265000;22;19915;-76
2022/12/30 01:32:46;;;;;;;;;;;;;;;;;;6264894;22;20254;-76
2022/12/30 01:35:12;;;;;;;;;;;;;;;;;;6264853;22;19919;-76
2022/12/30 01:37:38;;;;;;;;;;;;;;;;;;6240356;22;20318;-76
2022/12/30 01:40:04;;;;;;;;;;;;;;;;;;6234949;22;19925;-76
2022/12/30 01:42:30;;;;;;;;;;;;;;;;;;6237083;22;20026;-76
2022/12/30 01:44:56;;;;;;;;;;;;;;;;;;6262461;22;19915;-76
2022/12/30 01:47:22;;;;;;;;;;;;;;;;;;6261958;22;19915;-76
2022/12/30 01:49:48;;;;;;;;;;;;;;;;;;6262431;22;19953;-76
2022/12/30 01:52:14;;;;;;;;;;;;;;;;;;6262526;22;19919;-76
2022/12/30 01:54:40;;;;;;;;;;;;;;;;;;6261915;22;19915;-76
2022/12/30 01:57:06;;;;;;;;;;;;;;;;;;6262136;22;19994;-76
2022/12/30 01:59:32;;;;;;;;;;;;;;;;;;6236302;22;19987;-76
2022/12/30 02:01:58;;;;;;;;;;;;;;;;;;6264355;22;19919;-76
2022/12/30 02:04:24;;;;;;;;;;;;;;;;;;6262394;22;19919;-76
2022/12/30 02:06:49;;;;;;;;;;;;;;;;;;6235859;22;19915;-76
2022/12/30 02:09:15;;;;;;;;;;;;;;;;;;6262796;22;19962;-76
2022/12/30 02:11:41;;;;;;;;;;;;;;;;;;6262326;22;19919;-76
2022/12/30 02:14:07;;;;;;;;;;;;;;;;;;6262016;22;20126;-76
2022/12/30 02:16:33;;;;;;;;;;;;;;;;;;6263630;22;19989;-76
2022/12/30 02:18:59;;;;;;;;;;;;;;;;;;6263563;22;19961;-76
2022/12/30 02:21:25;;;;;;;;;;;;;;;;;;6262196;22;19919;-76
2022/12/30 02:23:51;;;;;;;;;;;;;;;;;;6236806;22;19915;-76
2022/12/30 02:26:17;;;;;;;;;;;;;;;;;;6261709;22;19915;-76
2022/12/30 02:28:43;;;;;;;;;;;;;;;;;;6262353;22;19915;-76
2022/12/30 02:31:09;;;;;;;;;;;;;;;;;;6261285;22;19954;-77
2022/12/30 02:33:35;;;;;;;;;;;;;;;;;;6261892;22;20335;-78
2022/12/30 02:36:01;;;;;;;;;;;;;;;;;;6261054;22;19915;-77
2022/12/30 02:38:27;;;;;;;;;;;;;;;;;;6238940;22;19919;-76
2022/12/30 02:46:22;;;;;;;;;;;;;;;;;;6265672;22;19925;-76
2022/12/30 02:48:48;;;;;;;;;;;;;;;;;;6294709;22;19918;-76
2022/12/30 02:53:59;;;;;;;;;;;;;;;;;;6265659;22;20004;-76
2022/12/30 02:56:25;;;;;;;;;;;;;;;;;;6294063;22;20320;-76
2022/12/30 03:03:56;;;;;;;;;;;;;;;;;;6265698;22;19919;-76
2022/12/30 03:04:21;;;;;;;;;;;;;;;;;;6266594;22;19914;-76
2022/12/30 03:06:47;;;;;;;;;;;;;;;;;;6239638;22;19943;-76
2022/12/30 03:09:13;;;;;;;;;;;;;;;;;;6293933;22;20044;-76
2022/12/30 03:11:39;;;;;;;;;;;;;;;;;;6293660;22;19918;-76
2022/12/30 03:14:05;;;;;;;;;;;;;;;;;;6294139;22;19921;-76
2022/12/30 03:16:31;;;;;;;;;;;;;;;;;;6241069;22;19985;-76
2022/12/30 03:18:57;;;;;;;;;;;;;;;;;;6266301;22;19915;-76
2022/12/30 03:21:23;;;;;;;;;;;;;;;;;;6266585;22;19915;-76
2022/12/30 03:29:18;;;;;;;;;;;;;;;;;;6266783;22;20013;-77
2022/12/30 03:31:44;;;;;;;;;;;;;;;;;;6240038;22;19965;-76
2022/12/30 03:34:10;;;;;;;;;;;;;;;;;;6266411;22;19937;-76
2022/12/30 03:36:36;;;;;;;;;;;;;;;;;;6266037;22;19914;-76
2022/12/30 03:39:02;;;;;;;;;;;;;;;;;;6260325;22;19919;-76
2022/12/30 03:41:28;;;;;;;;;;;;;;;;;;6260970;22;19962;-76
2022/12/30 03:43:54;;;;;;;;;;;;;;;;;;6263501;22;20340;-76
2022/12/30 03:46:20;;;;;;;;;;;;;;;;;;6261426;22;20350;-76
2022/12/30 03:48:46;;;;;;;;;;;;;;;;;;6261265;22;19915;-76
2022/12/30 03:51:12;;;;;;;;;;;;;;;;;;6261619;22;19922;-76
2022/12/30 03:53:38;;;;;;;;;;;;;;;;;;6260957;22;19938;-76
2022/12/30 03:56:04;;;;;;;;;;;;;;;;;;6261200;22;19946;-76
2022/12/30 03:58:30;;;;;;;;;;;;;;;;;;6262001;22;19972;-76
2022/12/30 04:00:56;;;;;;;;;;;;;;;;;;6263388;22;19915;-76
2022/12/30 04:03:22;;;;;;;;;;;;;;;;;;6260181;22;19915;-76
2022/12/30 04:05:47;;;;;;;;;;;;;;;;;;6261666;22;19919;-76
2022/12/30 04:08:13;;;;;;;;;;;;;;;;;;6261214;22;19915;-76
2022/12/30 04:10:39;;;;;;;;;;;;;;;;;;6260082;22;20338;-76
2022/12/30 04:13:05;;;;;;;;;;;;;;;;;;6262534;22;19946;-75
2022/12/30 04:15:31;;;;;;;;;;;;;;;;;;6261122;22;19919;-76
2022/12/30 04:17:57;;;;;;;;;;;;;;;;;;6260802;22;19981;-76
2022/12/30 04:20:23;;;;;;;;;;;;;;;;;;6261348;22;19915;-76
2022/12/30 04:22:49;;;;;;;;;;;;;;;;;;6260387;22;19915;-76
2022/12/30 04:25:15;;;;;;;;;;;;;;;;;;6260525;22;19915;-76
2022/12/30 04:27:41;;;;;;;;;;;;;;;;;;6260902;22;20342;-76
2022/12/30 04:30:07;;;;;;;;;;;;;;;;;;6260999;22;20309;-76
2022/12/30 04:32:33;;;;;;;;;;;;;;;;;;6260285;22;20836;-76
2022/12/30 04:34:59;;;;;;;;;;;;;;;;;;6260437;22;19911;-76
2022/12/30 04:37:25;;;;;;;;;;;;;;;;;;6261150;22;19937;-76
2022/12/30 04:39:51;;;;;;;;;;;;;;;;;;6260692;22;20124;-76
2022/12/30 04:42:17;;;;;;;;;;;;;;;;;;6260662;22;19978;-76
2022/12/30 04:44:43;;;;;;;;;;;;;;;;;;6260447;22;19915;-76
2022/12/30 04:47:09;;;;;;;;;;;;;;;;;;6260761;22;19919;-76
2022/12/30 04:49:34;;;;;;;;;;;;;;;;;;6261077;22;19926;-76
2022/12/30 04:52:00;;;;;;;;;;;;;;;;;;6260751;22;19998;-76
2022/12/30 04:54:26;;;;;;;;;;;;;;;;;;6262031;22;19915;-75
2022/12/30 04:56:52;;;;;;;;;;;;;;;;;;6260005;22;19965;-76
2022/12/30 04:59:18;;;;;;;;;;;;;;;;;;6234615;22;19919;-76
2022/12/30 05:01:44;;;;;;;;;;;;;;;;;;6259903;22;19915;-76
2022/12/30 05:04:10;;;;;;;;;;;;;;;;;;6260568;22;19919;-75
2022/12/30 05:06:36;;;;;;;;;;;;;;;;;;6260285;22;19922;-75
2022/12/30 05:09:02;;;;;;;;;;;;;;;;;;6260315;22;19915;-76
2022/12/30 05:11:28;;;;;;;;;;;;;;;;;;6262270;22;19934;-76
2022/12/30 05:13:54;;;;;;;;;;;;;;;;;;6262158;22;19921;-76
2022/12/30 05:16:20;;;;;;;;;;;;;;;;;;6260703;22;20014;-76
2022/12/30 05:18:46;;;;;;;;;;;;;;;;;;6262153;22;19915;-76
2022/12/30 05:21:12;;;;;;;;;;;;;;;;;;6260835;22;19923;-76
2022/12/30 05:26:22;;;;;;;;;;;;;;;;;;6261408;22;19915;-76
2022/12/30 05:28:48;;;;;;;;;;;;;;;;;;6259854;22;19919;-76
2022/12/30 05:31:14;;;;;;;;;;;;;;;;;;6260391;22;19989;-76
2022/12/30 05:33:40;;;;;;;;;;;;;;;;;;6260244;22;19918;-76
2022/12/30 05:36:06;;;;;;;;;;;;;;;;;;6259802;22;19977;-76
2022/12/30 05:38:32;;;;;;;;;;;;;;;;;;6261331;22;19923;-76
2022/12/30 05:40:58;;;;;;;;;;;;;;;;;;6265551;22;19919;-76
2022/12/30 05:43:24;;;;;;;;;;;;;;;;;;6265270;22;19941;-76
2022/12/30 05:45:50;;;;;;;;;;;;;;;;;;6265045;22;19954;-77
2022/12/30 05:48:16;;;;;;;;;;;;;;;;;;6265006;22;20368;-77
2022/12/30 05:50:42;;;;;;;;;;;;;;;;;;6265713;22;20101;-76
2022/12/30 05:53:08;;;;;;;;;;;;;;;;;;6264987;22;19929;-76
2022/12/30 05:55:34;;;;;;;;;;;;;;;;;;6265066;22;20017;-77
2022/12/30 05:58:00;;;;;;;;;;;;;;;;;;6264149;22;19940;-77
2022/12/30 06:00:26;;;;;;;;;;;;;;;;;;6291092;22;19949;-77
2022/12/30 06:02:52;;;;;;;;;;;;;;;;;;6264420;22;19937;-77
2022/12/30 06:05:18;;;;;;;;;;;;;;;;;;6265209;22;19918;-76
2022/12/30 06:07:44;;;;;;;;;;;;;;;;;;6265429;22;19993;-76
2022/12/30 06:10:10;;;;;;;;;;;;;;;;;;6291792;22;19929;-77
2022/12/30 06:12:36;;;;;;;;;;;;;;;;;;6264682;22;20348;-76
2022/12/30 06:15:02;;;;;;;;;;;;;;;;;;6264955;22;20013;-77
2022/12/30 06:17:28;;;;;;;;;;;;;;;;;;6264719;22;19919;-76
2022/12/30 06:19:53;;;;;;;;;;;;;;;;;;6239222;22;19915;-77
2022/12/30 06:22:19;;;;;;;;;;;;;;;;;;6293070;22;19976;-77
2022/12/30 06:24:45;;;;;;;;;;;;;;;;;;6264427;22;19918;-76
2022/12/30 06:27:11;;;;;;;;;;;;;;;;;;6264657;22;19921;-77
2022/12/30 06:29:37;;;;;;;;;;;;;;;;;;6266887;22;20204;-77
2022/12/30 06:32:03;;;;;;;;;;;;;;;;;;6294162;22;19925;-76
2022/12/30 06:34:29;;;;;;;;;;;;;;;;;;6267254;22;19982;-76
2022/12/30 06:36:55;;;;;;;;;;;;;;;;;;6294793;22;19922;-76
2022/12/30 06:39:21;;;;;;;;;;;;;;;;;;6265877;22;20001;-76
2022/12/30 06:41:47;;;;;;;;;;;;;;;;;;6265016;22;19918;-76
2022/12/30 06:44:13;;;;;;;;;;;;;;;;;;6266522;22;20006;-76
2022/12/30 06:46:39;;;;;;;;;;;;;;;;;;6267010;22;19921;-76
2022/12/30 06:49:05;;;;;;;;;;;;;;;;;;6294192;22;19915;-76
2022/12/30 06:51:31;;;;;;;;;;;;;;;;;;6265931;22;19915;-76
2022/12/30 06:53:57;;;;;;;;;;;;;;;;;;6266589;22;19915;-76
2022/12/30 06:56:23;;;;;;;;;;;;;;;;;;6266836;22;19915;-76
2022/12/30 06:58:49;;;;;;;;;;;;;;;;;;6266991;22;20313;-76
2022/12/30 07:01:14;;;;;;;;;;;;;;;;;;6293723;22;20626;-76
2022/12/30 07:03:40;;;;;;;;;;;;;;;;;;6294129;22;20254;-75
2022/12/30 07:06:06;;;;;;;;;;;;;;;;;;6266717;22;20683;-76
2022/12/30 07:08:32;;;;;;;;;;;;;;;;;;6266402;22;20346;-76
2022/12/30 07:10:58;;;;;;;;;;;;;;;;;;6266819;22;19919;-76
2022/12/30 07:13:26;;;;;;;;;;;;;;;;;;6265960;22;20248;-76
2022/12/30 07:15:51;;;;;;;;;;;;;;;;;;6267070;22;19921;-76
2022/12/30 07:18:17;;;;;;;;;;;;;;;;;;6266555;22;20025;-76
2022/12/30 07:20:43;;;;;;;;;;;;;;;;;;6266849;22;19915;-76
2022/12/30 07:23:09;;;;;;;;;;;;;;;;;;6267047;22;20004;-76
2022/12/30 07:25:35;;;;;;;;;;;;;;;;;;6267519;22;19914;-76
2022/12/30 07:28:01;;;;;;;;;;;;;;;;;;6266971;22;20412;-76
2022/12/30 07:30:27;;;;;;;;;;;;;;;;;;6266049;22;19926;-76
2022/12/30 07:32:53;;;;;;;;;;;;;;;;;;6266695;22;19918;-76
2022/12/30 07:35:19;;;;;;;;;;;;;;;;;;6240650;22;19922;-76
2022/12/30 07:37:45;;;;;;;;;;;;;;;;;;6240835;22;20318;-76
2022/12/30 07:40:11;;;;;;;0.10;0.10;;;;;;;;;;6265224;22;20729;-76
2022/12/30 07:42:37;;;;;;;0.20;0.20;;;;;;;;;;6265524;22;20357;-76
2022/12/30 07:45:04;;;;;;;0.10;0.10;;;;;;;;;;6293230;22;20384;-76
2022/12/30 07:47:30;;;;;;;;;;;;;;;;;;6292720;22;20019;-76
2022/12/30 07:49:56;;;;;;;;;;;;;;;;;;6266873;22;19990;-76
2022/12/30 07:52:22;;;;;;;;;;;;;;;;;;6266612;22;20349;-76
2022/12/30 07:54:48;;;;;;;;;;;;;;;;;;6265109;22;20051;-76
2022/12/30 07:57:13;;;;;;;;;;;;;;;;;;6265478;22;19915;-76
2022/12/30 07:59:39;;;;;;;;;;;;;;;;;;6266152;22;19914;-76
2022/12/30 08:02:05;;;;;;;;;;;;;;;;;;6265993;22;20183;-76
2022/12/30 08:04:31;;;;;;;;;;;;;;;;;;6265040;22;19914;-76
2022/12/30 08:06:57;;;;;;;;;;;;;;;;;;6265585;22;19950;-76
2022/12/30 08:09:23;;;;;;;;;;;;;;;;;;6265497;22;19915;-76
2022/12/30 08:11:49;;;;;;;;;;;;;;;;;;6266053;22;19919;-76
2022/12/30 08:14:15;;;;;;;;;;;;;;;;;;6266052;22;19946;-76
2022/12/30 08:16:41;;;;;;;;;;;;;;;;;;6265725;22;19914;-76
2022/12/30 08:19:07;;;;;;;;;;;;;;;;;;6293084;22;19972;-77
2022/12/30 08:21:33;;;;;;;;;;;;;;;;;;6265608;22;20154;-76
2022/12/30 08:23:59;;;;;;;;;;;;;;;;;;6264840;22;19954;-76
2022/12/30 08:26:25;;;;;;;;;;;;;;;;;;6265344;22;20292;-76
2022/12/30 08:28:51;;;;;;;;;;;;;;;;;;6264605;22;19976;-76
2022/12/30 08:31:17;;;;;;;;;;;;;;;;;;6265454;22;19915;-76
2022/12/30 08:33:43;;;;;;;;;;;;;;;;;;6265926;22;19918;-76
2022/12/30 08:36:09;;;;;;;;;;;;;;;;;;6266063;22;20376;-77
2022/12/30 08:38:36;;;;;;;;;;;;;;;;;;6264198;22;20036;-76
2022/12/30 08:41:02;;;;;;;;;;;;;;;;;;6240105;22;19989;-77
2022/12/30 08:43:27;;;;;;;;;;;;;;;;;;6265285;22;19915;-76
2022/12/30 08:45:53;;;;;;;;;;;;;;;;;;6265933;22;19940;-76
2022/12/30 08:48:20;;;;;;;;;;;;;;;;;;6292871;22;20412;-76
2022/12/30 08:50:46;;;;;;;;;;;;;;;;;;6264614;22;20357;-76
2022/12/30 08:53:12;;;;;;;;;;;;;;;;;;6265699;22;19919;-76
2022/12/30 08:55:38;;;;;;;;;;;;;;;;;;6264687;22;19922;-77
2022/12/30 08:58:04;;;;;;;;;;;;;;;;;;6266296;22;19914;-77
2022/12/30 09:00:30;;;;;;;;;;;;;;;;;;6266658;22;20345;-76
2022/12/30 09:02:56;;;;;;;;;;;;;;;;;;6237958;22;19921;-76
2022/12/30 09:05:21;;;;;;;;;;;;;;;;;;6265435;22;19942;-76
2022/12/30 09:07:47;;;;;;;;;;;;;;;;;;6264917;22;19922;-76
2022/12/30 09:10:13;;;;;;;;;;;;;;;;;;6265880;22;19919;-76
2022/12/30 09:12:39;;;;;;;;;;;;;;;;;;6265383;22;19919;-76
2022/12/30 09:15:06;;;;;;;;;;;;;;;;;;6265748;22;20005;-76
2022/12/30 09:17:32;;;;;;;;;;;;;;;;;;6265508;22;20448;-76
2022/12/30 09:19:58;;;;;;;;;;;;;;;;;;6238967;22;20261;-76
2022/12/30 09:22:24;;;;;;;;;;;;;;;;;;6264761;22;19953;-76
2022/12/30 09:24:50;;;;;;;;;;;;;;;;;;6265754;22;19919;-76
2022/12/30 09:27:16;;;;;;;;;;;;;;;;;;6265542;22;20353;-77
2022/12/30 09:29:41;;;;;;;;;;;;;;;;;;6263394;22;19915;-76
2022/12/30 09:32:07;;;;;;;;;;;;;;;;;;6265791;22;20323;-77
2022/12/30 09:34:33;;;;;;;;;;;;;;;;;;6265909;22;20245;-77
2022/12/30 09:36:59;;;;;;;;;;;;;;;;;;6265412;22;19950;-77
2022/12/30 09:39:34;;;;;;;;;;;;;;;;;;6259741;22;19925;-77
2022/12/30 09:44:45;;;;;;;;;;;;;;;;;;6259971;22;20404;-78
2022/12/30 09:47:11;;;;;;;;;;;;;;;;;;6261095;22;19920;-77
2022/12/30 09:49:37;;;;;;;;;;;;;;;;;;6259889;22;19915;-77
2022/12/30 09:52:03;;;;;;;;;;;;;;;;;;6260192;22;19994;-78
2022/12/30 09:54:29;;;;;;;;;;;;;;;;;;6259994;22;19915;-77
2022/12/30 09:57:30;;;;;;;;;;;;;;;;;;6260187;22;19969;-77
2022/12/30 09:59:41;;;;;;;;;;;;;;;;;;6261766;22;20330;-77
2022/12/30 10:02:07;;;;;;;;;;;;;;;;;;6260966;22;20241;-77
2022/12/30 10:04:36;;;;;;;;;;;;;;;;;;6262341;22;19950;-77
2022/12/30 10:07:02;;;;;;;;;;;;;;;;;;6262385;22;19938;-77
2022/12/30 10:09:28;;;;;;;;;;;;;;;;;;6261692;22;19919;-78
2022/12/30 10:11:54;;;;;;;;;;;;;;;;;;6262240;22;20439;-76
2022/12/30 10:14:20;;;;;;;;;;;;;;;;;;6262448;22;20254;-77
2022/12/30 10:16:46;;;;;;;;;;;;;;;;;;6262075;22;19975;-77
2022/12/30 10:19:12;;;;;;;;;;;;;;;;;;6263596;22;19915;-77
2022/12/30 10:21:38;;;;;;;;;;;;;;;;;;6263384;22;19926;-76
2022/12/30 10:24:04;;;;;;;;;;;;;;;;;;6261832;22;20377;-77
2022/12/30 10:26:30;;;;;;;;;;;;;;;;;;6264027;22;19969;-77
2022/12/30 10:28:56;;;;;;;;;;;;;;;;;;6262387;22;19961;-76
2022/12/30 10:31:22;;;;;;;;;;;;;;;;;;6261735;22;19915;-76
2022/12/30 10:33:48;;;;;;;;;;;;;;;;;;6263822;22;19981;-76
2022/12/30 10:36:14;;;;;;;;;;;;;;;;;;6261974;22;19988;-77
2022/12/30 10:38:40;;;;;;;;;;;;;;;;;;6266337;22;19933;-77
2022/12/30 10:41:06;;;;;;;0.10;0.10;;;;;;;;;;6267318;22;19915;-76
2022/12/30 10:43:32;;;;;;;;;;;;;;;;;;6268046;22;20080;-77
2022/12/30 10:45:58;;;;;;;;;;;;;;;;;;6267461;22;19923;-76
2022/12/30 10:48:24;;;;;;;;;;;;;;;;;;6266812;22;20250;-76
2022/12/30 10:50:49;;;;;;;;;;;;;;;;;;6266822;22;19915;-76
2022/12/30 10:53:17;;;;;;;;;;;;;;;;;;6266388;22;19944;-77
2022/12/30 10:55:43;;;;;;;;;;;;;;;;;;6267083;22;20254;-76
2022/12/30 10:58:09;;;;;;;;;;;;;;;;;;6294499;22;20213;-76
2022/12/30 11:00:40;;;;;;;;;;;;;;;;;;6266702;22;20274;-76
2022/12/30 11:03:06;;;;;;;;;;;;;;;;;;6292718;22;19914;-77
2022/12/30 11:05:32;;;;;;;;;;;;;;;;;;6266566;22;19922;-77
2022/12/30 11:07:58;;;;;;;;;;;;;;;;;;6266657;22;20403;-77
2022/12/30 11:10:24;;;;;;;;;;;;;;;;;;6266948;22;19940;-77
2022/12/30 11:15:35;;;;;;;;;;;;;;;;;;6265544;22;19922;-79
2022/12/30 11:18:01;;;;;;;;;;;;;;;;;;6267071;22;19918;-79
2022/12/30 11:20:27;;;;;;;;;;;;;;;;;;6267035;22;19978;-79
2022/12/30 11:22:53;;;;;;;;;;;;;;;;;;6266963;22;19922;-79
2022/12/30 11:25:19;;;;;;;;;;;;;;;;;;6266536;22;19915;-80
2022/12/30 11:27:45;;;;;;;;;;;;;;;;;;6267563;22;20636;-80
2022/12/30 11:30:11;;;;;;;;;;;;;;;;;;6266803;22;19922;-78
2022/12/30 11:32:37;;;;;;;;;;;;;;;;;;6293962;22;20372;-78
2022/12/30 11:35:03;;;;;;;;;;;;;;;;;;6293772;22;20607;-77
2022/12/30 11:37:34;;;;;;;0.10;0.10;;;;;;;;;;6293655;22;20242;-78
2022/12/30 11:40:20;;;;;;;0.10;0.10;;;;;;;;;;6292847;22;20030;-77
2022/12/30 11:42:46;;;;;;;0.10;0.10;;;;;;;;;;6266495;22;20019;-76
2022/12/30 11:45:19;;;;;;;0.10;0.10;;;;;;;;;;6265650;22;20283;-77
2022/12/30 11:47:48;;;;;;;0.10;0.10;;;;;;;;;;6264810;22;20026;-78
2022/12/30 11:50:16;;;;;;;0.10;0.10;;;;;;;;;;6265831;22;20055;-77
2022/12/30 11:52:47;;;;;;;0.10;0.10;;;;;;;;;;6292977;22;20019;-77
2022/12/30 11:55:19;;;;;;;0.10;0.10;;;;;;;;;;6265907;22;20269;-77
2022/12/30 11:57:47;;;;;;;0.10;0.10;;;;;;;;;;6264622;22;20022;-77
2022/12/30 12:00:14;;;;;;;0.10;0.10;;;;;;;;;;6264930;22;20256;-76
2022/12/30 12:02:47;;;;;;;0.10;0.10;;;;;;;;;;6292841;22;20092;-77
2022/12/30 12:05:39;;;;;;;0.10;0.10;;;;;;;;;;6292809;22;20011;-78
2022/12/30 12:08:10;;;;;;;0.10;0.10;;;;;;;;;;6245178;22;20411;-78
2022/12/30 12:10:37;;;;;;;0.10;0.10;;;;;;;;;;6263518;22;20443;-77
2022/12/30 12:13:22;;;;;;;0.10;0.10;;;;;;;;;;6264294;22;20027;-78
2022/12/30 12:15:53;;;;;;;0.10;0.10;;;;;;;;;;6262869;22;20015;-75
2022/12/30 12:18:28;;;;;;;0.10;0.10;;;;;;;;;;6263678;22;20023;-76
2022/12/30 12:20:57;;;;;;;0.10;0.10;;;;;;;;;;6262820;22;20879;-76
2022/12/30 12:23:34;;;;;;;0.10;0.10;;;;;;;;;;6238297;22;20060;-76
2022/12/30 12:26:19;;;;;;;0.10;0.10;;;;;;;;;;6263671;22;20045;-77
2022/12/30 12:28:46;;;;;;;0.10;0.10;;;;;;;;;;6238353;22;20458;-78
2022/12/30 12:31:31;;;;;;;0.10;0.10;;;;;;;;;;6262397;22;20123;-77
2022/12/30 12:34:09;;;;;;;0.10;0.10;;;;;;;;;;6264080;22;20389;-77
2022/12/30 12:36:38;;;;;;;0.20;0.20;;;;;;;;;;6238519;22;20042;-76
2022/12/30 12:39:11;;;;;;;0.10;0.10;;;;;;;;;;6258840;22;20023;-76
2022/12/30 12:41:37;;;;;;;0.10;0.10;;;;;;;;;;6259992;22;20020;-76
2022/12/30 12:44:03;;;;;;;0.10;0.10;;;;;;;;;;6256753;22;20012;-77
2022/12/30 12:46:42;;;;;;;0.10;0.10;;;;;;;;;;6258698;22;20018;-77
2022/12/30 12:49:23;;;;;;;0.10;0.10;;;;;;;;;;6259244;22;20083;-77
2022/12/30 12:52:03;;;;;;;0.10;0.10;;;;;;;;;;6258309;22;20020;-77
2022/12/30 12:54:55;;;;;;;0.10;0.10;;;;;;;;;;6258124;22;20468;-77
2022/12/30 12:57:39;;;;;;;0.10;0.10;;;;;;;;;;6259011;22;20024;-76
2022/12/30 13:00:13;;;;;;;0.10;0.10;;;;;;;;;;6257655;22;20355;-77
2022/12/30 13:02:58;;;;;;;0.10;0.10;;;;;;;;;;6258538;22;20015;-76
2022/12/30 13:05:42;;;;;;;0.10;0.10;;;;;;;;;;6258768;22;20012;-77
2022/12/30 13:08:18;;;;;;;0.10;0.10;;;;;;;;;;6259260;22;20055;-77
2022/12/30 13:10:45;;;;;;;0.10;0.10;;;;;;;;;;6258135;22;20453;-77
2022/12/30 13:13:31;;;;;;;0.10;0.10;;;;;;;;;;6256891;22;20462;-77
2022/12/30 13:15:58;;;;;;;0.10;0.10;;;;;;;;;;6258562;22;20023;-75
2022/12/30 13:18:26;;;;;;;0.10;0.10;;;;;;;;;;6259229;22;20026;-76
2022/12/30 13:20:54;;;;;;;0.10;0.10;;;;;;;;;;6258460;22;20016;-75
2022/12/30 13:23:24;;;;;;;0.10;0.10;;;;;;;;;;6258591;22;20024;-75
2022/12/30 13:25:52;;;;;;;0.10;0.10;;;;;;;;;;6257400;22;20123;-76
2022/12/30 13:28:22;;;;;;;0.10;0.10;;;;;;;;;;6232504;22;20553;-75
2022/12/30 13:30:54;;;;;;;0.10;0.10;;;;;;;;;;6260518;22;20022;-75
2022/12/30 13:33:28;;;;;;;0.10;0.10;;;;;;;;;;6260736;22;20016;-76
2022/12/30 13:35:57;;;;;;;0.10;0.10;;;;;;;;;;6257421;22;20081;-75
2022/12/30 13:38:27;;;;;;;0.95;0.95;;;;;;;;;;6261363;22;20132;-76
2022/12/30 13:41:11;;;;;;;0.30;0.30;;;;;;;;;;6260499;22;20024;-75
2022/12/30 13:43:40;;;;;;;0.10;0.10;;;;;;;;;;6259461;22;20113;-76
2022/12/30 13:46:14;;;;;;;0.10;0.10;;;;;;;;;;6260800;22;20070;-75
2022/12/30 13:48:40;;;;;;;;;;;;;;;;;;6261166;22;20031;-76
2022/12/30 13:51:06;;;;;;;;;;;;;;;;;;6262247;22;20018;-76
2022/12/30 13:53:32;;;;;;;;;;;;;;;;;;6261912;22;19919;-76
2022/12/30 13:55:58;;;;;;;;;;;;;;;;;;6260968;22;19919;-75
2022/12/30 13:58:24;;;;;;;;;;;;;;;;;;6261674;22;20307;-75
2022/12/30 14:00:50;;;;;;;;;;;;;;;;;;6259754;22;20302;-77
2022/12/30 14:03:16;;;;;;;;;;;;;;;;;;6261508;22;19915;-77
2022/12/30 14:05:42;;;;;;;;;;;;;;;;;;6261602;22;19967;-76
2022/12/30 14:08:08;;;;;;;;;;;;;;;;;;6260352;22;20041;-80
2022/12/30 14:10:34;;;;;;;;;;;;;;;;;;6260389;22;20281;-80
2022/12/30 14:13:00;;;;;;;;;;;;;;;;;;6260144;22;19919;-78
2022/12/30 14:15:26;;;;;;;;;;;;;;;;;;6260428;22;19915;-79
2022/12/30 14:17:52;;;;;;;;;;;;;;;;;;6261393;22;20000;-81
2022/12/30 14:20:18;;;;;;;;;;;;;;;;;;6260864;22;19915;-82
2022/12/30 14:22:43;;;;;;;;;;;;;;;;;;6261838;22;20043;-84
2022/12/30 14:25:33;;;;;;;0.10;0.10;;;;;;;;;;6262333;22;19915;-82
2022/12/30 14:28:00;;;;;;;0.10;0.10;;;;;;;;;;6261783;22;20023;-85
2022/12/30 14:30:29;;;;;;;0.20;0.20;;;;;;;;;;6262258;22;20023;-85
2022/12/30 14:33:00;;;;;;;0.10;0.10;;;;;;;;;;6260595;22;20016;-81
2022/12/30 14:35:26;;;;;;;0.10;0.10;;;;;;;;;;6261831;22;20016;-85
2022/12/30 14:38:12;;;;;;;0.10;0.10;;;;;;;;;;6265844;22;20477;-84
2022/12/30 14:40:39;;;;;;;0.10;0.10;;;;;;;;;;6264612;22;20093;-83
2022/12/30 14:43:05;;;;;;;0.10;0.10;;;;;;;;;;6266825;22;20031;-83
2022/12/30 14:45:32;;;;;;;0.10;0.10;;;;;;;;;;6264308;22;20047;-83
2022/12/30 14:47:58;;;;;;;0.10;0.10;;;;;;;;;;6238079;22;20102;-83
2022/12/30 14:50:28;;;;;;;0.10;0.10;;;;;;;;;;6238771;22;20023;-82
2022/12/30 14:53:05;;;;;;;0.10;0.10;;;;;;;;;;6237001;22;20091;-83
2022/12/30 14:55:33;;;;;;;0.10;0.10;;;;;;;;;;6262485;22;20023;-84
2022/12/30 14:58:02;;;;;;;0.10;0.10;;;;;;;;;;6259999;22;20027;-83
2022/12/30 15:00:30;;;;;;;0.10;0.10;;;;;;;;;;6262034;22;20066;-84
2022/12/30 15:02:57;;;;;;;0.10;0.10;;;;;;;;;;6260138;22;20055;-83
2022/12/30 15:05:23;;;;;;;0.10;0.10;;;;;;;;;;6260622;22;20021;-84
2022/12/30 15:07:55;;;;;;;0.15;0.15;;;;;;;;;;6260801;22;20054;-82
2022/12/30 15:10:30;;;;;;;0.10;0.10;;;;;;;;;;6260894;22;20022;-87
2022/12/30 15:13:03;;;;;;;0.10;0.10;;;;;;;;;;6235459;22;20019;-84
2022/12/30 15:15:30;;;;;;;0.10;0.10;;;;;;;;;;6262081;22;20447;-82
2022/12/30 15:17:57;;;;;;;0.10;0.10;;;;;;;;;;6262208;22;20408;-82
2022/12/30 15:20:32;;;;;;;0.10;0.10;;;;;;;;;;6261632;22;20378;-83
2022/12/30 15:23:02;;;;;;;0.10;0.10;;;;;;;;;;6262711;22;20020;-82
2022/12/30 15:25:28;;;;;;;0.10;0.10;;;;;;;;;;6263870;22;20101;-84
2022/12/30 15:27:58;;;;;;;0.10;0.10;;;;;;;;;;6260725;22;20090;-82
2022/12/30 15:30:24;;;;;;;0.10;0.10;;;;;;;;;;6259632;22;20447;-82
2022/12/30 15:32:59;;;;;;;0.10;0.10;;;;;;;;;;6262053;22;20020;-83
2022/12/30 15:35:28;;;;;;;0.10;0.10;;;;;;;;;;6261045;22;20091;-85
2022/12/30 15:37:55;;;;;;;0.10;0.10;;;;;;;;;;6260894;22;20020;-83
2022/12/30 15:40:23;;;;;;;0.10;0.10;;;;;;;;;;6233963;22;20031;-83
2022/12/30 15:43:01;;;;;;;0.10;0.10;;;;;;;;;;6259120;22;20028;-83
2022/12/30 15:45:27;;;;;;;0.10;0.10;;;;;;;;;;6260647;22;20023;-81
2022/12/30 15:47:55;;;;;;;0.10;0.10;;;;;;;;;;6260411;22;20220;-82
2022/12/30 15:50:50;;;;;;;0.10;0.10;;;;;;;;;;6260540;22;20020;-81
2022/12/30 15:53:24;;;;;;;0.10;0.10;;;;;;;;;;6228196;22;20019;-82
2022/12/30 15:55:51;;;;;;;0.10;0.10;;;;;;;;;;6260189;22;20118;-82
2022/12/30 15:58:33;;;;;;;0.10;0.10;;;;;;;;;;6259227;22;20020;-82
2022/12/30 16:01:19;;;;;;;0.10;0.10;;;;;;;;;;6259313;22;20439;-82
2022/12/30 16:04:00;;;;;;;0.13;0.13;;;;;;;;;;6260015;22;20019;-81
2022/12/30 16:06:27;;;;;;;0.10;0.10;;;;;;;;;;6260151;22;20023;-82
2022/12/30 16:08:53;;;;;;;0.10;0.10;;;;;;;;;;6261978;22;20334;-83
2022/12/30 16:11:36;;;;;;;0.10;0.10;;;;;;;;;;6259604;22;20018;-82
2022/12/30 16:14:17;;;;;;;0.10;0.10;;;;;;;;;;6259535;22;20024;-80
2022/12/30 16:16:43;;;;;;;0.10;0.10;;;;;;;;;;6257816;22;20418;-82
2022/12/30 16:19:14;;;;;;;0.10;0.10;;;;;;;;;;6260121;22;20387;-82
2022/12/30 16:21:51;;;;;;;0.10;0.10;;;;;;;;;;6258403;22;20027;-81
2022/12/30 16:24:29;;;;;;;0.13;0.13;;;;;;;;;;6259694;22;20015;-81
2022/12/30 16:26:57;;;;;;;0.10;0.10;;;;;;;;;;6258120;22;20026;-82
2022/12/30 16:29:27;;;;;;;0.10;0.10;;;;;;;;;;6260061;22;20015;-85
2022/12/30 16:31:54;;;;;;;0.10;0.10;;;;;;;;;;6232975;22;20021;-81
2022/12/30 16:34:21;;;;;;;0.10;0.10;;;;;;;;;;6260794;22;20338;-83
2022/12/30 16:36:47;;;;;;;0.10;0.10;;;;;;;;;;6258935;22;20091;-82
2022/12/30 16:39:13;;;;;;;0.10;0.10;;;;;;;;;;6259083;22;20024;-84
2022/12/30 16:41:40;;;;;;;0.10;0.10;;;;;;;;;;6259596;22;20522;-85
2022/12/30 16:44:20;;;;;;;0.20;0.20;;;;;;;;;;6261521;22;20011;-87
2022/12/30 16:46:46;;;;;;;0.10;0.10;;;;;;;;;;6259423;22;20019;-82
2022/12/30 16:49:12;;;;;;;0.10;0.10;;;;;;;;;;6259330;22;20043;-81
2022/12/30 16:51:39;;;;;;;0.10;0.10;;;;;;;;;;6258841;22;20394;-80
2022/12/30 16:54:10;;;;;;;0.10;0.10;;;;;;;;;;6259238;22;20024;-81
2022/12/30 16:56:37;;;;;;;0.10;0.10;;;;;;;;;;6259141;22;20019;-80
2022/12/30 16:59:03;;;;;;;0.10;0.10;;;;;;;;;;6233328;22;20048;-81
2022/12/30 17:01:29;;;;;;;0.20;0.20;;;;;;;;;;6258594;22;20034;-81